Time;durP1;ratioP1;P1;durP2;ratioP2;P2;SDS_P1;SDS_P2;PMS_P1;PMS_P2;Temp;Humidity;BMP_temperature;BMP_pressure;BME280_temperature;BME280_humidity;BME280_pressure;Samples;Min_cycle;Max_cycle;Signal;HPM_P1;HPM_P2
2024/04/14 00:00:31;;;;;;;3.60;1.50;;;;;;;26.39;38.97;101928.53;4571041;25;19998;-61
2024/04/14 00:02:33;;;;;;;3.15;1.60;;;;;;;26.38;38.84;101929.53;4558292;26;20356;-60
2024/04/14 00:04:35;;;;;;;;;;;;;;;26.39;38.18;101923.16;4560726;26;20017;-61
2024/04/14 00:06:37;;;;;;;;;;;;;;;26.37;38.43;101928.69;4570997;25;19930;-61
2024/04/14 00:08:39;;;;;;;4.45;1.30;;;;;;;26.34;39.02;101925.38;4550039;26;19924;-62
2024/04/14 00:10:41;;;;;;;5.10;1.70;;;;;;;26.34;38.92;101926.22;4572409;25;20005;-62
2024/04/14 00:12:43;;;;;;;3.13;1.42;;;;;;;26.34;38.46;101925.38;4563524;25;20328;-62
2024/04/14 00:14:45;;;;;;;;;;;;;;;26.35;38.46;101929.81;4556673;26;20487;-62
2024/04/14 00:16:46;;;;;;;4.00;1.40;;;;;;;26.32;38.25;101936.31;4556626;25;19923;-62
2024/04/14 00:18:48;;;;;;;;;;;;;;;26.35;38.45;101946.81;4564718;25;20013;-62
2024/04/14 00:20:50;;;;;;;4.35;1.65;;;;;;;26.34;38.16;101944.25;4541373;26;19924;-61
2024/04/14 00:22:55;;;;;;;3.67;1.40;;;;;;;26.34;38.06;101936.19;4548595;25;20010;-61
2024/04/14 00:24:57;;;;;;;2.88;1.42;;;;;;;26.36;37.85;101937.75;4557776;25;20002;-60
2024/04/14 00:26:59;;;;;;;2.60;1.30;;;;;;;26.32;38.12;101936.31;4541208;26;20002;-61
2024/04/14 00:29:01;;;;;;;3.30;1.17;;;;;;;26.34;38.06;101946.97;4561247;26;20016;-60
2024/04/14 00:31:06;;;;;;;4.10;1.50;;;;;;;26.34;38.06;101936.19;4541914;26;20017;-61
2024/04/14 00:33:08;;;;;;;4.68;1.38;;;;;;;26.35;37.50;101943.28;4543290;26;20022;-61
2024/04/14 00:35:10;;;;;;;3.45;1.40;;;;;;;26.33;37.73;101935.31;4552606;26;20076;-61
2024/04/14 00:37:11;;;;;;;;;;;;;;;26.32;37.29;101947.09;4572345;26;20116;-61
2024/04/14 00:39:13;;;;;;;4.07;1.60;;;;;;;26.28;37.51;101937.53;4553322;26;19931;-61
2024/04/14 00:41:18;;;;;;;3.97;1.30;;;;;;;26.27;37.57;101927.72;4567764;26;20013;-61
2024/04/14 00:43:20;;;;;;;3.45;1.40;;;;;;;26.27;37.87;101944.78;4568583;26;20002;-60
2024/04/14 00:45:22;;;;;;;3.60;1.40;;;;;;;26.26;37.82;101942.19;4550685;25;20406;-61
2024/04/14 00:47:24;;;;;;;2.53;1.30;;;;;;;26.19;37.07;101932.94;4571540;26;20005;-61
2024/04/14 00:49:26;;;;;;;3.58;1.40;;;;;;;26.24;37.30;101942.31;4554484;25;20010;-60
2024/04/14 00:51:28;;;;;;;3.42;1.30;;;;;;;26.22;37.25;101946.13;4553229;26;20013;-60
2024/04/14 00:53:31;;;;;;;3.45;1.30;;;;;;;26.26;37.63;101955.66;4566976;25;20002;-60
2024/04/14 00:55:34;;;;;;;2.78;1.40;;;;;;;26.23;36.91;101943.31;4559547;26;20048;-60
2024/04/14 00:57:37;;;;;;;3.22;1.23;;;;;;;26.25;37.45;101953.97;4540888;26;20017;-61
2024/04/14 00:59:39;;;;;;;4.32;1.20;;;;;;;26.26;36.57;101950.28;4554696;26;20057;-60
2024/04/14 01:01:41;;;;;;;3.63;1.45;;;;;;;26.26;37.32;101952.97;4549506;25;20452;-61
2024/04/14 01:03:43;;;;;;;4.20;1.40;;;;;;;26.24;37.09;101950.41;4542796;26;20006;-60
2024/04/14 01:05:45;;;;;;;3.17;1.23;;;;;;;26.24;36.75;101952.28;4561061;26;20026;-61
2024/04/14 01:07:49;;;;;;;2.95;1.10;;;;;;;26.21;37.35;101948.00;4540779;26;20002;-61
2024/04/14 01:09:51;;;;;;;3.15;1.30;;;;;;;26.22;36.99;101952.41;4550774;26;20335;-61
2024/04/14 01:11:53;;;;;;;3.85;1.20;;;;;;;26.21;36.28;101958.78;4551323;25;20451;-61
2024/04/14 01:13:55;;;;;;;4.18;1.30;;;;;;;26.19;36.49;101951.81;4542497;26;20240;-61
2024/04/14 01:15:57;;;;;;;5.22;1.20;;;;;;;26.18;36.65;101953.63;4560519;26;20010;-60
2024/04/14 01:17:59;;;;;;;;;;;;;;;26.17;36.44;101962.69;4571019;25;20435;-61
2024/04/14 01:20:01;;;;;;;3.25;1.20;;;;;;;26.13;36.72;101955.84;4563225;26;19930;-61
2024/04/14 01:22:02;;;;;;;;;;;;;;;26.15;36.17;101964.69;4558732;25;20017;-61
2024/04/14 01:24:04;;;;;;;2.85;1.00;;;;;;;26.13;36.71;101961.25;4602228;25;19934;-61
2024/04/14 01:26:06;;;;;;;3.80;1.20;;;;;;;26.15;36.64;101968.22;4563014;26;20451;-61
2024/04/14 01:28:08;;;;;;;2.97;1.10;;;;;;;26.14;36.33;101965.66;4540490;26;20002;-61
2024/04/14 01:30:10;;;;;;;4.38;1.30;;;;;;;26.14;35.92;101971.06;4546623;26;20018;-61
2024/04/14 01:32:12;;;;;;;3.20;1.30;;;;;;;26.15;36.11;101964.69;4549908;25;20078;-61
2024/04/14 01:34:17;;;;;;;;;;;;;;;26.15;35.87;101968.22;4559051;26;20069;-62
2024/04/14 01:36:19;;;;;;;2.35;1.20;;;;;;;26.12;35.84;101976.53;4549515;25;19924;-62
2024/04/14 01:38:20;;;;;;;;;;;;;;;26.12;36.45;101973.00;4569561;26;20008;-62
2024/04/14 01:40:27;;;;;;;3.10;1.10;;;;;;;26.09;35.83;101975.94;4565187;26;19923;-61
2024/04/14 01:42:29;;;;;;;;;;;;;;;26.10;36.11;101980.34;4554195;26;20009;-62
2024/04/14 01:44:31;;;;;;;3.35;1.17;;;;;;;26.05;35.91;101974.47;4569318;26;20016;-61
2024/04/14 01:46:33;;;;;;;;;;;;;;;26.05;35.91;101977.16;4551469;25;20013;-62
2024/04/14 01:48:35;;;;;;;3.35;1.20;;;;;;;26.00;36.49;101974.81;4566925;25;19923;-62
2024/04/14 01:50:37;;;;;;;2.38;1.15;;;;;;;26.02;35.84;101983.66;4564621;25;20016;-62
2024/04/14 01:52:39;;;;;;;3.80;1.33;;;;;;;26.02;35.95;101991.75;4570283;26;20061;-62
2024/04/14 01:54:44;;;;;;;3.88;1.38;;;;;;;25.99;35.75;101995.56;4570143;25;20009;-62
2024/04/14 01:56:46;;;;;;;3.75;1.05;;;;;;;26.03;36.25;101992.59;4552697;26;20069;-61
2024/04/14 01:58:48;;;;;;;3.00;1.10;;;;;;;26.02;35.90;101988.19;4565462;26;20463;-61
2024/04/14 02:00:49;;;;;;;;;;;;;;;26.02;36.04;101997.13;4568021;25;20002;-62
2024/04/14 02:02:54;;;;;;;4.18;1.20;;;;;;;25.97;36.19;101983.19;4549321;26;19952;-62
2024/04/14 02:04:56;;;;;;;4.53;1.42;;;;;;;26.00;36.23;101980.22;4570774;25;20017;-61
2024/04/14 02:06:58;;;;;;;;;;;;;;;26.02;36.02;101985.50;4555112;25;20091;-62
2024/04/14 02:09:00;;;;;;;2.25;1.02;;;;;;;25.97;35.97;101986.72;4563076;26;19932;-62
2024/04/14 02:11:05;;;;;;;3.25;1.05;;;;;;;25.99;35.64;101983.91;4567093;26;20468;-62
2024/04/14 02:13:06;;;;;;;3.40;1.13;;;;;;;25.99;35.63;101986.59;4549525;25;20012;-61
2024/04/14 02:15:08;;;;;;;;;;;;;;;25.98;35.28;101993.00;4570793;25;20001;-60
2024/04/14 02:17:10;;;;;;;2.63;0.90;;;;;;;25.91;35.81;101989.91;4555730;26;19934;-61
2024/04/14 02:19:12;;;;;;;;;;;;;;;25.94;35.44;101992.38;4570851;25;20016;-61
2024/04/14 02:21:14;;;;;;;2.45;1.00;;;;;;;25.90;35.67;101995.44;4568267;25;20073;-61
2024/04/14 02:23:16;;;;;;;;;;;;;;;25.92;36.08;102004.25;4585788;25;20019;-62
2024/04/14 02:25:17;;;;;;;2.67;1.10;;;;;;;25.87;35.23;102001.94;4573346;25;19957;-61
2024/04/14 02:27:19;;;;;;;;;;;;;;;25.89;35.35;102004.50;4563117;25;20055;-61
2024/04/14 02:29:21;;;;;;;3.70;1.10;;;;;;;25.88;35.84;102010.88;4560762;26;19923;-62
2024/04/14 02:31:23;;;;;;;2.80;1.10;;;;;;;25.88;35.15;102006.31;4564832;25;20010;-62
2024/04/14 02:33:25;;;;;;;;;;;;;;;25.90;35.14;102001.69;4561941;25;20381;-62
2024/04/14 02:35:27;;;;;;;2.58;1.20;;;;;;;25.84;35.76;102003.03;4573415;25;19930;-61
2024/04/14 02:37:29;;;;;;;;;;;;;;;25.88;35.20;102008.19;4565831;25;20339;-62
2024/04/14 02:39:31;;;;;;;4.65;1.20;;;;;;;25.85;35.61;102011.97;4556354;26;19923;-62
2024/04/14 02:41:32;;;;;;;2.60;0.90;;;;;;;25.84;35.24;102013.81;4573502;25;20017;-63
2024/04/14 02:43:34;;;;;;;;;;;;;;;25.87;35.83;102023.50;4551423;26;20013;-62
2024/04/14 02:45:40;;;;;;;3.28;0.98;;;;;;;25.82;35.23;102012.22;4571705;26;19930;-61
2024/04/14 02:47:41;;;;;;;2.33;1.20;;;;;;;25.84;35.54;102021.88;4566785;25;20009;-61
2024/04/14 02:49:44;;;;;;;2.55;0.90;;;;;;;25.83;35.44;102019.31;4555465;26;20006;-61
2024/04/14 02:51:45;;;;;;;2.55;1.00;;;;;;;25.80;35.35;102022.28;4561393;25;20077;-61
2024/04/14 02:53:47;;;;;;;1.92;1.00;;;;;;;25.82;35.78;102023.88;4565071;25;20005;-61
2024/04/14 02:55:49;;;;;;;3.65;1.10;;;;;;;25.80;35.42;102017.72;4545329;26;20002;-61
2024/04/14 02:57:50;;;;;;;;;;;;;;;25.81;35.17;102024.00;4545347;26;20007;-61
2024/04/14 02:59:53;;;;;;;3.78;1.17;;;;;;;25.74;36.00;102017.38;4561648;26;19924;-62
2024/04/14 03:01:54;;;;;;;;;;;;;;;25.79;35.93;102025.94;4543147;26;20734;-61
2024/04/14 03:03:56;;;;;;;2.60;0.98;;;;;;;25.74;35.38;102022.78;4558553;26;19992;-60
2024/04/14 03:06:03;;;;;;;5.30;1.00;;;;;;;25.78;35.94;102026.91;4548336;25;20344;-62
2024/04/14 03:08:05;;;;;;;3.28;1.10;;;;;;;25.77;35.19;102022.50;4544655;26;20436;-61
2024/04/14 03:10:10;;;;;;;2.60;0.88;;;;;;;25.79;35.42;102025.94;4569748;26;20443;-61
2024/04/14 03:12:12;;;;;;;2.60;1.08;;;;;;;25.75;35.08;102011.88;4572815;25;20439;-62
2024/04/14 03:14:14;;;;;;;;;;;;;;;25.78;35.84;102027.78;4564625;25;20001;-61
2024/04/14 03:16:16;;;;;;;2.30;0.93;;;;;;;25.71;35.23;102025.69;4558248;26;19991;-61
2024/04/14 03:18:18;;;;;;;2.80;1.10;;;;;;;25.69;35.55;102017.75;4566307;26;20402;-61
2024/04/14 03:20:20;;;;;;;4.18;1.10;;;;;;;25.77;35.98;102035.97;4562501;26;20002;-61
2024/04/14 03:22:21;;;;;;;;;;;;;;;25.75;35.41;102025.34;4557064;25;20004;-61
2024/04/14 03:24:23;;;;;;;2.00;0.90;;;;;;;25.71;35.75;102031.09;4574788;25;19991;-60
2024/04/14 03:26:27;;;;;;;2.97;1.10;;;;;;;25.70;35.49;102026.66;4551044;26;20014;-61
2024/04/14 03:28:29;;;;;;;4.13;1.20;;;;;;;25.71;35.89;102031.09;4543798;26;20002;-62
2024/04/14 03:30:31;;;;;;;3.30;1.00;;;;;;;25.72;35.09;102030.13;4562395;26;20005;-61
2024/04/14 03:32:33;;;;;;;3.85;1.20;;;;;;;25.63;35.30;102021.78;4540684;26;20002;-61
2024/04/14 03:34:35;;;;;;;2.67;1.10;;;;;;;25.69;35.45;102028.53;4554194;26;20074;-62
2024/04/14 03:36:37;;;;;;;;;;;;;;;25.68;35.46;102024.94;4560819;26;20020;-61
2024/04/14 03:38:38;;;;;;;3.08;0.90;;;;;;;25.62;35.60;102025.44;4569979;26;19923;-60
2024/04/14 03:40:40;;;;;;;3.35;1.02;;;;;;;25.59;35.54;102012.22;4550077;26;20408;-61
2024/04/14 03:42:42;;;;;;;;;;;;;;;25.67;36.01;102025.09;4572945;25;20001;-61
2024/04/14 03:44:47;;;;;;;4.85;1.00;;;;;;;25.64;36.03;102020.81;4564389;26;19938;-60
2024/04/14 03:46:49;;;;;;;2.75;0.90;;;;;;;25.64;35.45;102020.81;4557776;26;20001;-60
2024/04/14 03:48:50;;;;;;;;;;;;;;;25.66;35.77;102029.63;4572745;25;20013;-61
2024/04/14 03:50:52;;;;;;;2.80;1.10;;;;;;;25.63;35.88;102026.31;4556397;26;20269;-61
2024/04/14 03:52:54;;;;;;;;;;;;;;;25.65;35.89;102027.03;4569314;25;20001;-60
2024/04/14 03:54:56;;;;;;;2.78;1.20;;;;;;;25.61;36.23;102025.56;4563874;26;20332;-60
2024/04/14 03:56:59;;;;;;;2.85;1.00;;;;;;;25.60;35.51;102023.84;4558998;25;20002;-60
2024/04/14 03:59:01;;;;;;;5.18;1.25;;;;;;;25.59;36.03;102023.00;4541594;26;20010;-60
2024/04/14 04:01:03;;;;;;;3.00;1.08;;;;;;;25.58;35.91;102021.28;4561136;26;20021;-61
2024/04/14 04:03:08;;;;;;;4.10;1.05;;;;;;;25.58;35.23;102023.09;4544262;26;20029;-61
2024/04/14 04:05:10;;;;;;;3.13;1.10;;;;;;;25.58;35.34;102017.72;4543198;26;20002;-61
2024/04/14 04:07:11;;;;;;;;;;;;;;;25.58;35.46;102029.38;4561099;25;20017;-61
2024/04/14 04:09:14;;;;;;;3.00;1.10;;;;;;;25.50;35.69;102026.41;4541646;26;19930;-61
2024/04/14 04:11:15;;;;;;;3.30;1.38;;;;;;;25.55;35.54;102034.13;4558975;26;20001;-61
2024/04/14 04:13:19;;;;;;;3.58;1.00;;;;;;;25.52;36.13;102038.78;4545122;26;20002;-61
2024/04/14 04:15:21;;;;;;;2.88;0.93;;;;;;;25.56;36.01;102043.94;4548690;26;20470;-61
2024/04/14 04:17:23;;;;;;;;;;;;;;;25.56;35.31;102044.78;4556710;25;20006;-61
2024/04/14 04:19:25;;;;;;;1.92;1.02;;;;;;;25.54;35.61;102035.97;4570359;26;19923;-60
2024/04/14 04:21:28;;;;;;;3.67;1.00;;;;;;;25.54;35.35;102040.50;4563974;25;20020;-61
2024/04/14 04:23:30;;;;;;;3.75;1.30;;;;;;;25.54;35.65;102054.81;4572456;25;20078;-61
2024/04/14 04:25:32;;;;;;;;;;;;;;;25.53;35.17;102053.13;4569620;25;20006;-61
2024/04/14 04:27:37;;;;;;;4.53;1.13;;;;;;;25.49;35.63;102057.03;4550469;26;19930;-61
2024/04/14 04:29:41;;;;;;;3.42;1.10;;;;;;;25.48;36.14;102055.28;4571989;25;20017;-61
2024/04/14 04:31:43;;;;;;;3.05;1.20;;;;;;;25.42;35.18;102037.81;4555756;25;20351;-61
2024/04/14 04:33:45;;;;;;;;;;;;;;;25.49;35.39;102054.31;4554296;26;20010;-60
2024/04/14 04:35:59;;;;;;;3.40;1.10;;;;;;;25.46;36.04;102058.13;4541687;26;19932;-61
2024/04/14 04:38:01;;;;;;;3.85;1.23;;;;;;;25.41;35.84;102049.53;4561594;26;20038;-61
2024/04/14 04:40:04;;;;;;;3.55;1.10;;;;;;;25.44;35.17;102065.44;4540983;26;20013;-61
2024/04/14 04:42:09;;;;;;;3.42;1.05;;;;;;;25.36;35.44;102046.34;4555224;26;20002;-60
2024/04/14 04:44:11;;;;;;;4.30;1.10;;;;;;;25.43;35.98;102063.75;4547623;25;20013;-60
2024/04/14 04:46:13;;;;;;;3.13;1.10;;;;;;;25.39;35.35;102062.25;4546579;26;20032;-60
2024/04/14 04:48:15;;;;;;;;;;;;;;;25.42;35.94;102067.44;4551237;25;20017;-61
2024/04/14 04:50:16;;;;;;;;;;;;;;;25.39;35.40;102067.66;4572145;25;19931;-61
2024/04/14 04:52:20;;;;;;;3.78;1.20;;;;;;;25.35;35.31;102058.06;4551000;26;19924;-60
2024/04/14 04:54:22;;;;;;;3.95;1.17;;;;;;;25.40;35.55;102068.53;4562042;26;20020;-61
2024/04/14 04:56:24;;;;;;;4.45;1.30;;;;;;;25.40;35.21;102065.84;4566295;26;20037;-62
2024/04/14 04:58:26;;;;;;;4.63;1.42;;;;;;;25.38;36.08;102065.94;4548906;26;20021;-61
2024/04/14 05:00:28;;;;;;;;;;;;;;;25.38;35.31;102073.16;4572034;25;20001;-61
2024/04/14 05:02:30;;;;;;;;;;;;;;;25.34;35.65;102073.34;4561137;25;19931;-60
2024/04/14 05:04:32;;;;;;;2.22;1.10;;;;;;;25.31;35.66;102073.63;4559065;26;20348;-60
2024/04/14 05:06:34;;;;;;;4.03;1.10;;;;;;;25.33;35.74;102073.47;4570527;26;20339;-61
2024/04/14 05:08:36;;;;;;;3.35;1.20;;;;;;;25.33;35.39;102074.31;4547009;26;20002;-60
2024/04/14 05:10:40;;;;;;;;;;;;;;;25.31;35.79;102073.63;4571688;25;20006;-62
2024/04/14 05:12:42;;;;;;;2.95;1.05;;;;;;;25.30;36.07;102079.09;4562621;26;19948;-61
2024/04/14 05:14:43;;;;;;;;;;;;;;;25.29;35.71;102078.25;4557098;26;20400;-61
2024/04/14 05:16:45;;;;;;;4.05;1.33;;;;;;;25.23;35.80;102072.50;4555472;26;20354;-61
2024/04/14 05:18:47;;;;;;;;;;;;;;;25.26;35.84;102080.31;4568171;26;20392;-61
2024/04/14 05:20:49;;;;;;;;;;;;;;;25.25;35.79;102081.28;4541028;26;20338;-62
2024/04/14 05:22:51;;;;;;;3.75;1.33;;;;;;;25.22;35.77;102077.00;4548624;25;19932;-61
2024/04/14 05:24:53;;;;;;;;;;;;;;;25.25;36.23;102079.47;4558027;25;20007;-62
2024/04/14 05:26:57;;;;;;;3.55;1.30;;;;;;;25.25;35.83;102083.97;4567632;26;19963;-61
2024/04/14 05:28:59;;;;;;;;;;;;;;;25.27;35.57;102084.72;4563479;25;20377;-61
2024/04/14 05:31:01;;;;;;;3.42;1.20;;;;;;;25.21;35.44;102083.34;4542848;26;19924;-61
2024/04/14 05:33:03;;;;;;;3.70;1.40;;;;;;;25.22;35.47;102089.63;4542785;26;20020;-61
2024/04/14 05:35:05;;;;;;;3.17;1.35;;;;;;;25.23;35.34;102086.78;4549803;26;20009;-62
2024/04/14 05:37:07;;;;;;;3.75;1.17;;;;;;;25.24;36.36;102098.41;4570713;25;20001;-62
2024/04/14 05:39:09;;;;;;;3.67;1.20;;;;;;;25.19;36.15;102098.78;4552717;25;20020;-61
2024/04/14 05:41:11;;;;;;;3.15;1.10;;;;;;;25.20;36.17;102108.56;4563731;26;20012;-62
2024/04/14 05:43:13;;;;;;;;;;;;;;;25.21;35.42;102104.91;4568648;25;20017;-61
2024/04/14 05:45:25;;;;;;;3.38;1.40;;;;;;;25.17;35.68;102098.88;4549773;26;19923;-61
2024/04/14 05:47:27;;;;;;;2.90;1.20;;;;;;;25.17;36.33;102104.28;4570463;25;20005;-61
2024/04/14 05:49:29;;;;;;;4.22;1.48;;;;;;;25.14;35.98;102103.63;4553135;25;20515;-61
2024/04/14 05:51:31;;;;;;;3.17;1.23;;;;;;;25.16;35.74;102107.09;4553517;26;20081;-61
2024/04/14 05:53:33;;;;;;;;;;;;;;;25.17;35.80;102108.81;4565134;25;20013;-60
2024/04/14 05:55:35;;;;;;;;;;;;;;;25.14;35.76;102109.91;4561374;26;19923;-61
2024/04/14 05:57:37;;;;;;;;;;;;;;;25.13;35.96;102112.69;4543693;26;19924;-61
2024/04/14 05:59:39;;;;;;;3.72;1.10;;;;;;;25.13;35.99;102116.25;4557252;26;19947;-61
2024/04/14 06:01:41;;;;;;;2.95;1.10;;;;;;;25.10;35.76;102107.56;4551270;25;20078;-60
2024/04/14 06:03:45;;;;;;;3.10;1.00;;;;;;;25.12;35.71;102101.06;4545323;26;20014;-61
2024/04/14 06:05:49;;;;;;;3.05;1.08;;;;;;;25.13;35.99;102104.63;4563502;26;20014;-59
2024/04/14 06:07:51;;;;;;;;;;;;;;;25.15;36.57;102108.06;4543195;26;20459;-60
2024/04/14 06:09:53;;;;;;;5.05;1.30;;;;;;;25.13;35.75;102118.06;4555172;26;19927;-60
2024/04/14 06:11:55;;;;;;;;;;;;;;;25.13;36.14;102115.38;4553609;25;20002;-61
2024/04/14 06:13:57;;;;;;;3.33;1.10;;;;;;;25.09;36.30;102112.06;4545347;26;19930;-61
2024/04/14 06:15:58;;;;;;;2.22;0.93;;;;;;;25.10;36.09;102113.78;4563640;26;20052;-61
2024/04/14 06:18:00;;;;;;;3.17;1.20;;;;;;;25.07;36.19;102099.69;4573264;25;20013;-60
2024/04/14 06:20:03;;;;;;;2.20;1.10;;;;;;;25.08;36.40;102115.75;4565563;25;20008;-61
2024/04/14 06:22:07;;;;;;;3.67;0.95;;;;;;;25.07;36.46;102114.03;4560462;25;20002;-61
2024/04/14 06:24:09;;;;;;;3.20;1.05;;;;;;;25.05;36.14;102110.59;4601917;25;20001;-61
2024/04/14 06:26:10;;;;;;;;;;;;;;;25.08;36.10;102109.50;4565078;26;20017;-61
2024/04/14 06:28:12;;;;;;;2.55;1.05;;;;;;;25.03;36.57;102110.72;4542500;26;20452;-61
2024/04/14 06:30:14;;;;;;;2.85;1.13;;;;;;;25.07;36.56;102119.41;4550256;26;20040;-60
2024/04/14 06:32:16;;;;;;;;;;;;;;;25.08;36.76;102122.94;4552108;25;20484;-60
2024/04/14 06:34:17;;;;;;;2.70;1.05;;;;;;;25.04;36.26;102127.72;4561581;25;19964;-61
2024/04/14 06:36:19;;;;;;;2.95;1.10;;;;;;;25.07;36.52;102123.91;4551018;25;20021;-62
2024/04/14 06:38:21;;;;;;;4.15;1.23;;;;;;;25.08;36.16;102125.66;4571370;26;20002;-61
2024/04/14 06:40:23;;;;;;;;;;;;;;;25.07;36.04;102132.88;4568424;25;20403;-62
2024/04/14 06:42:25;;;;;;;2.55;1.15;;;;;;;25.00;36.30;102135.16;4555196;26;19923;-62
2024/04/14 06:44:27;;;;;;;2.97;0.80;;;;;;;25.04;36.16;102135.78;4573191;25;19997;-61
2024/04/14 06:46:28;;;;;;;3.30;1.00;;;;;;;24.99;36.14;102129.88;4553950;25;20006;-61
2024/04/14 06:48:30;;;;;;;;;;;;;;;25.02;36.40;102138.59;4569408;25;20005;-62
2024/04/14 06:50:32;;;;;;;2.92;0.98;;;;;;;25.00;36.19;102137.00;4568245;26;19991;-62
2024/04/14 06:52:34;;;;;;;;;;;;;;;25.01;36.93;102136.03;4572580;26;20396;-62
2024/04/14 06:54:36;;;;;;;3.03;1.15;;;;;;;24.97;36.95;102131.84;4572890;25;19927;-62
2024/04/14 06:56:38;;;;;;;3.42;1.10;;;;;;;24.99;36.30;102132.59;4556576;26;20003;-61
2024/04/14 06:58:40;;;;;;;2.45;1.00;;;;;;;25.00;36.19;102126.22;4566047;26;20002;-61
2024/04/14 07:00:42;;;;;;;3.58;1.13;;;;;;;24.99;36.82;102124.50;4569541;25;20017;-61
2024/04/14 07:02:47;;;;;;;2.80;1.00;;;;;;;25.00;36.71;102126.22;4551971;25;20001;-62
2024/04/14 07:04:50;;;;;;;3.15;1.10;;;;;;;24.94;36.43;102116.78;4572758;25;20009;-62
2024/04/14 07:06:51;;;;;;;;;;;;;;;25.01;36.63;102134.19;4558182;26;20017;-62
2024/04/14 07:08:53;;;;;;;2.35;1.10;;;;;;;24.98;37.02;102134.44;4563220;26;19923;-62
2024/04/14 07:10:55;;;;;;;;;;;;;;;24.99;36.94;102129.88;4570384;25;20001;-61
2024/04/14 07:12:57;;;;;;;3.30;1.10;;;;;;;24.98;36.10;102133.56;4552031;26;19935;-63
2024/04/14 07:14:59;;;;;;;2.63;1.00;;;;;;;24.98;36.55;102133.56;4570800;26;20419;-62
2024/04/14 07:17:02;;;;;;;;;;;;;;;24.98;36.38;102126.34;4560950;25;20077;-62
2024/04/14 07:19:04;;;;;;;3.08;1.23;;;;;;;24.93;36.36;102124.97;4572668;25;20004;-62
2024/04/14 07:21:06;;;;;;;3.05;1.10;;;;;;;24.97;36.31;102132.72;4570721;25;20001;-61
2024/04/14 07:23:08;;;;;;;3.92;1.10;;;;;;;24.96;37.08;102132.78;4584295;25;20005;-62
2024/04/14 07:25:10;;;;;;;;;;;;;;;24.96;37.20;102130.09;4573321;26;20012;-62
2024/04/14 07:27:12;;;;;;;2.88;1.00;;;;;;;24.92;36.39;102126.78;4563408;25;19931;-62
2024/04/14 07:29:14;;;;;;;;;;;;;;;24.93;36.54;102127.66;4559151;26;20005;-62
2024/04/14 07:31:16;;;;;;;6.50;1.27;;;;;;;24.92;36.50;102128.63;4565850;26;20357;-63
2024/04/14 07:33:18;;;;;;;2.95;0.90;;;;;;;24.89;36.38;102121.66;4560102;26;20001;-62
2024/04/14 07:35:20;;;;;;;4.43;1.20;;;;;;;24.91;36.51;102117.03;4541551;26;20348;-62
2024/04/14 07:37:22;;;;;;;;;;;;;;;24.94;36.94;102124.00;4548144;26;20110;-62
2024/04/14 07:39:23;;;;;;;2.80;1.00;;;;;;;24.92;36.67;102121.41;4558506;26;20265;-61
2024/04/14 07:41:29;;;;;;;;;;;;;;;24.94;36.74;102124.00;4540760;26;20326;-62
2024/04/14 07:43:32;;;;;;;3.30;0.90;;;;;;;24.91;36.55;102122.41;4560439;26;19930;-62
2024/04/14 07:45:34;;;;;;;2.80;1.10;;;;;;;24.94;36.63;102124.00;4543747;26;20006;-62
2024/04/14 07:47:36;;;;;;;5.70;1.13;;;;;;;24.92;36.31;102113.31;4544119;26;20460;-62
2024/04/14 07:49:41;;;;;;;4.22;0.98;;;;;;;24.95;36.67;102117.66;4559149;25;20006;-62
2024/04/14 07:51:43;;;;;;;2.58;0.93;;;;;;;24.91;36.62;102113.44;4561735;26;20515;-62
2024/04/14 07:53:48;;;;;;;;;;;;;;;24.94;36.97;102129.38;4564827;25;20368;-62
2024/04/14 07:55:50;;;;;;;3.40;1.05;;;;;;;24.90;36.82;102122.50;4544451;26;20277;-62
2024/04/14 07:57:52;;;;;;;2.80;1.02;;;;;;;24.92;36.63;102118.72;4544119;26;20022;-62
2024/04/14 07:59:53;;;;;;;;;;;;;;;24.92;36.62;102124.09;4561841;26;20002;-62
2024/04/14 08:01:55;;;;;;;3.22;1.25;;;;;;;24.87;36.94;102121.78;4541827;26;19951;-62
2024/04/14 08:03:58;;;;;;;3.15;1.20;;;;;;;24.90;36.88;102118.00;4557693;26;19998;-62
2024/04/14 08:06:01;;;;;;;2.90;1.00;;;;;;;24.92;36.94;102118.72;4546837;25;20002;-62
2024/04/14 08:08:03;;;;;;;2.67;1.08;;;;;;;24.92;37.27;102121.41;4543849;26;19998;-62
2024/04/14 08:10:05;;;;;;;4.28;1.20;;;;;;;24.92;36.81;102117.88;4562056;26;20013;-62
2024/04/14 08:12:07;;;;;;;4.32;1.20;;;;;;;24.89;37.24;102116.25;4541729;26;20079;-61
2024/04/14 08:14:13;;;;;;;3.55;0.98;;;;;;;24.92;36.86;102121.41;4556965;26;20415;-62
2024/04/14 08:16:15;;;;;;;3.65;0.90;;;;;;;24.90;36.64;102111.72;4559122;25;20403;-61
2024/04/14 08:18:22;;;;;;;;;;;;;;;24.94;37.12;102115.94;4567182;25;20459;-62
2024/04/14 08:20:24;;;;;;;3.72;1.00;;;;;;;24.88;37.00;102101.09;4561867;26;20377;-62
2024/04/14 08:22:28;;;;;;;4.78;1.02;;;;;;;24.91;37.34;102108.94;4558449;25;20041;-62
2024/04/14 08:24:30;;;;;;;3.28;1.30;;;;;;;24.88;36.85;102106.47;4572021;25;20459;-61
2024/04/14 08:26:31;;;;;;;;;;;;;;;24.89;37.31;102108.19;4547833;26;20003;-61
2024/04/14 08:28:33;;;;;;;4.13;1.20;;;;;;;24.84;36.71;102107.69;4543792;26;19931;-60
2024/04/14 08:30:38;;;;;;;3.95;1.08;;;;;;;24.85;37.19;102107.56;4561866;26;20025;-62
2024/04/14 08:32:40;;;;;;;5.18;1.40;;;;;;;24.86;36.70;102105.72;4540901;26;20078;-61
2024/04/14 08:34:41;;;;;;;4.10;1.02;;;;;;;24.86;36.92;102108.41;4553378;26;20002;-61
2024/04/14 08:36:43;;;;;;;;;;;;;;;24.87;36.67;102107.44;4561949;26;20344;-61
2024/04/14 08:38:45;;;;;;;2.65;1.00;;;;;;;24.84;37.19;102107.69;4569007;26;19927;-61
2024/04/14 08:40:54;;;;;;;3.40;1.00;;;;;;;24.83;37.34;102100.59;4561563;26;20021;-60
2024/04/14 08:42:56;;;;;;;3.63;1.08;;;;;;;24.85;37.49;102098.66;4563377;26;20076;-61
2024/04/14 08:45:00;;;;;;;2.78;0.93;;;;;;;24.88;36.95;102101.94;4559672;25;20002;-60
2024/04/14 08:47:10;;;;;;;6.70;1.30;;;;;;;24.87;37.02;102092.16;4562389;26;20002;-61
2024/04/14 08:49:13;;;;;;;2.47;1.05;;;;;;;24.87;37.35;102094.88;4568484;25;20489;-62
2024/04/14 08:51:16;;;;;;;2.60;1.00;;;;;;;24.85;36.89;102088.72;4554558;25;20018;-62
2024/04/14 08:53:21;;;;;;;2.63;1.10;;;;;;;24.85;37.13;102088.72;4571444;25;20001;-61
2024/04/14 08:55:23;;;;;;;3.40;1.10;;;;;;;24.86;37.02;102084.19;4563388;25;20013;-61
2024/04/14 08:57:26;;;;;;;3.65;1.13;;;;;;;24.86;36.89;102086.88;4551023;25;20421;-61
2024/04/14 08:59:29;;;;;;;2.88;0.90;;;;;;;24.84;36.88;102094.22;4543184;26;20006;-61
2024/04/14 09:01:31;;;;;;;4.63;1.13;;;;;;;24.83;37.17;102098.72;4561439;26;20001;-61
2024/04/14 09:03:33;;;;;;;2.85;1.00;;;;;;;24.78;36.48;102084.78;4540556;26;20080;-61
2024/04/14 09:05:36;;;;;;;3.00;0.90;;;;;;;24.83;36.92;102089.81;4550971;26;20013;-61
2024/04/14 09:07:39;;;;;;;3.05;0.93;;;;;;;24.82;37.01;102088.94;4553058;25;20006;-61
2024/04/14 09:09:42;;;;;;;4.00;0.90;;;;;;;24.84;36.78;102086.16;4541739;26;20014;-61
2024/04/14 09:11:55;;;;;;;2.90;0.80;;;;;;;24.86;37.14;102089.56;4562120;25;20347;-62
2024/04/14 09:13:57;;;;;;;2.95;0.88;;;;;;;24.87;36.53;102089.47;4540949;26;20002;-61
2024/04/14 09:15:59;;;;;;;;;;;;;;;24.88;37.26;102088.47;4545425;26;20002;-60
2024/04/14 09:18:01;;;;;;;4.13;0.90;;;;;;;24.84;37.34;102089.69;4562557;26;19931;-60
2024/04/14 09:20:03;;;;;;;3.05;1.20;;;;;;;24.90;36.71;102096.47;4570463;26;20027;-61
2024/04/14 09:22:06;;;;;;;2.75;1.00;;;;;;;24.91;36.73;102098.19;4564680;25;19997;-61
2024/04/14 09:24:08;;;;;;;4.75;1.00;;;;;;;24.90;36.98;102096.47;4570944;25;20012;-61
2024/04/14 09:26:09;;;;;;;;;;;;;;;24.91;37.26;102095.50;4562597;25;20004;-64
2024/04/14 09:28:11;;;;;;;3.22;0.88;;;;;;;24.87;37.20;102093.97;4556801;26;20369;-61
2024/04/14 09:30:20;;;;;;;2.95;0.90;;;;;;;24.87;36.91;102089.47;4571160;25;20388;-62
2024/04/14 09:32:23;;;;;;;2.97;0.93;;;;;;;24.85;36.73;102086.03;4550601;26;20006;-61
2024/04/14 09:34:26;;;;;;;3.55;1.27;;;;;;;24.90;37.34;102090.19;4550934;26;20010;-61
2024/04/14 09:36:28;;;;;;;2.22;0.80;;;;;;;24.89;36.87;102089.34;4551270;26;20005;-61
2024/04/14 09:38:31;;;;;;;2.97;0.90;;;;;;;24.90;36.79;102091.06;4555709;26;20002;-61
2024/04/14 09:40:35;;;;;;;2.33;0.90;;;;;;;24.90;37.35;102080.31;4543409;26;20075;-62
2024/04/14 09:42:37;;;;;;;2.55;0.90;;;;;;;24.90;36.35;102074.06;4550759;26;19998;-62